sensor_id;sensor_type;location;lat;lon;timestamp;P1;durP1;ratioP1;P2;durP2;ratioP2
42518;SDS011;28147;47.520;18.920;2023-11-19T00:01:55;6.45;;;2.80;;
42518;SDS011;28147;47.520;18.920;2023-11-19T00:04:21;6.07;;;3.20;;
42518;SDS011;28147;47.520;18.920;2023-11-19T00:06:47;8.48;;;3.47;;
42518;SDS011;28147;47.520;18.920;2023-11-19T00:09:13;5.55;;;2.85;;
42518;SDS011;28147;47.520;18.920;2023-11-19T00:11:38;5.43;;;2.47;;
42518;SDS011;28147;47.520;18.920;2023-11-19T00:14:03;5.60;;;2.70;;
42518;SDS011;28147;47.520;18.920;2023-11-19T00:16:29;6.80;;;3.42;;
42518;SDS011;28147;47.520;18.920;2023-11-19T00:18:57;5.32;;;2.58;;
42518;SDS011;28147;47.520;18.920;2023-11-19T00:21:22;5.20;;;2.60;;
42518;SDS011;28147;47.520;18.920;2023-11-19T00:23:48;5.28;;;2.67;;
42518;SDS011;28147;47.520;18.920;2023-11-19T00:26:13;5.20;;;2.40;;
42518;SDS011;28147;47.520;18.920;2023-11-19T00:28:39;5.47;;;2.50;;
42518;SDS011;28147;47.520;18.920;2023-11-19T00:31:04;8.48;;;2.67;;
42518;SDS011;28147;47.520;18.920;2023-11-19T00:33:30;5.32;;;2.28;;
42518;SDS011;28147;47.520;18.920;2023-11-19T00:35:56;6.47;;;2.15;;
42518;SDS011;28147;47.520;18.920;2023-11-19T00:38:21;3.15;;;1.90;;
42518;SDS011;28147;47.520;18.920;2023-11-19T00:40:47;5.90;;;2.45;;
42518;SDS011;28147;47.520;18.920;2023-11-19T00:43:12;4.32;;;2.42;;
42518;SDS011;28147;47.520;18.920;2023-11-19T00:45:38;7.72;;;2.47;;
42518;SDS011;28147;47.520;18.920;2023-11-19T00:48:03;5.78;;;2.70;;
42518;SDS011;28147;47.520;18.920;2023-11-19T00:50:29;5.20;;;2.30;;
42518;SDS011;28147;47.520;18.920;2023-11-19T00:52:56;4.95;;;2.60;;
42518;SDS011;28147;47.520;18.920;2023-11-19T00:55:21;5.45;;;2.75;;
42518;SDS011;28147;47.520;18.920;2023-11-19T00:57:46;5.22;;;2.65;;
42518;SDS011;28147;47.520;18.920;2023-11-19T01:00:12;3.53;;;2.15;;
42518;SDS011;28147;47.520;18.920;2023-11-19T01:02:45;6.38;;;2.80;;
42518;SDS011;28147;47.520;18.920;2023-11-19T01:05:11;6.75;;;2.25;;
42518;SDS011;28147;47.520;18.920;2023-11-19T01:07:39;6.20;;;2.30;;
42518;SDS011;28147;47.520;18.920;2023-11-19T01:10:05;4.07;;;2.38;;
42518;SDS011;28147;47.520;18.920;2023-11-19T01:12:31;4.18;;;2.35;;
42518;SDS011;28147;47.520;18.920;2023-11-19T01:14:56;5.38;;;2.35;;
42518;SDS011;28147;47.520;18.920;2023-11-19T01:17:23;5.47;;;2.53;;
42518;SDS011;28147;47.520;18.920;2023-11-19T01:19:48;5.65;;;2.63;;
42518;SDS011;28147;47.520;18.920;2023-11-19T01:22:15;8.25;;;2.45;;
42518;SDS011;28147;47.520;18.920;2023-11-19T01:24:40;4.55;;;2.13;;
42518;SDS011;28147;47.520;18.920;2023-11-19T01:27:06;4.60;;;2.53;;
42518;SDS011;28147;47.520;18.920;2023-11-19T01:29:31;5.43;;;2.47;;
42518;SDS011;28147;47.520;18.920;2023-11-19T01:31:57;4.35;;;2.30;;
42518;SDS011;28147;47.520;18.920;2023-11-19T01:34:22;5.28;;;2.65;;
42518;SDS011;28147;47.520;18.920;2023-11-19T01:36:47;4.97;;;2.33;;
42518;SDS011;28147;47.520;18.920;2023-11-19T01:39:13;5.22;;;2.30;;
42518;SDS011;28147;47.520;18.920;2023-11-19T01:41:41;6.22;;;2.50;;
42518;SDS011;28147;47.520;18.920;2023-11-19T01:44:06;4.40;;;2.10;;
42518;SDS011;28147;47.520;18.920;2023-11-19T01:46:32;4.50;;;2.33;;
42518;SDS011;28147;47.520;18.920;2023-11-19T01:48:58;4.95;;;2.50;;
42518;SDS011;28147;47.520;18.920;2023-11-19T01:51:24;4.75;;;2.17;;
42518;SDS011;28147;47.520;18.920;2023-11-19T01:53:50;4.90;;;2.13;;
42518;SDS011;28147;47.520;18.920;2023-11-19T01:56:16;5.45;;;2.78;;
42518;SDS011;28147;47.520;18.920;2023-11-19T01:58:42;4.53;;;2.60;;
42518;SDS011;28147;47.520;18.920;2023-11-19T02:01:10;5.88;;;2.58;;
42518;SDS011;28147;47.520;18.920;2023-11-19T02:03:36;5.53;;;2.75;;
42518;SDS011;28147;47.520;18.920;2023-11-19T02:06:02;5.78;;;2.58;;
42518;SDS011;28147;47.520;18.920;2023-11-19T02:08:29;6.35;;;2.47;;
42518;SDS011;28147;47.520;18.920;2023-11-19T02:10:55;4.85;;;2.35;;
42518;SDS011;28147;47.520;18.920;2023-11-19T02:13:23;5.72;;;3.10;;
42518;SDS011;28147;47.520;18.920;2023-11-19T02:15:50;5.15;;;2.47;;
42518;SDS011;28147;47.520;18.920;2023-11-19T02:18:19;4.93;;;2.40;;
42518;SDS011;28147;47.520;18.920;2023-11-19T02:20:49;5.38;;;2.35;;
42518;SDS011;28147;47.520;18.920;2023-11-19T02:23:15;5.80;;;3.17;;
42518;SDS011;28147;47.520;18.920;2023-11-19T02:25:42;5.07;;;2.80;;
42518;SDS011;28147;47.520;18.920;2023-11-19T02:28:12;5.68;;;2.58;;
42518;SDS011;28147;47.520;18.920;2023-11-19T02:30:38;5.72;;;2.83;;
42518;SDS011;28147;47.520;18.920;2023-11-19T02:33:03;4.22;;;2.30;;
42518;SDS011;28147;47.520;18.920;2023-11-19T02:35:30;5.25;;;2.50;;
42518;SDS011;28147;47.520;18.920;2023-11-19T02:37:57;5.53;;;2.60;;
42518;SDS011;28147;47.520;18.920;2023-11-19T02:40:24;6.55;;;2.85;;
42518;SDS011;28147;47.520;18.920;2023-11-19T02:42:50;6.30;;;2.70;;
42518;SDS011;28147;47.520;18.920;2023-11-19T02:45:17;6.05;;;2.80;;
42518;SDS011;28147;47.520;18.920;2023-11-19T02:47:43;5.18;;;2.25;;
42518;SDS011;28147;47.520;18.920;2023-11-19T02:50:12;4.35;;;2.30;;
42518;SDS011;28147;47.520;18.920;2023-11-19T02:52:41;5.72;;;2.65;;
42518;SDS011;28147;47.520;18.920;2023-11-19T02:57:40;3.47;;;1.85;;
42518;SDS011;28147;47.520;18.920;2023-11-19T03:03:12;5.88;;;2.63;;
42518;SDS011;28147;47.520;18.920;2023-11-19T03:05:47;4.82;;;2.05;;
42518;SDS011;28147;47.520;18.920;2023-11-19T03:08:16;4.78;;;2.30;;
42518;SDS011;28147;47.520;18.920;2023-11-19T03:10:41;4.28;;;2.00;;
42518;SDS011;28147;47.520;18.920;2023-11-19T03:13:10;5.55;;;2.13;;
42518;SDS011;28147;47.520;18.920;2023-11-19T03:15:38;5.43;;;2.83;;
42518;SDS011;28147;47.520;18.920;2023-11-19T03:18:03;4.15;;;2.35;;
42518;SDS011;28147;47.520;18.920;2023-11-19T03:20:28;4.40;;;2.60;;
42518;SDS011;28147;47.520;18.920;2023-11-19T03:22:55;5.43;;;2.30;;
42518;SDS011;28147;47.520;18.920;2023-11-19T03:25:22;5.95;;;2.40;;
42518;SDS011;28147;47.520;18.920;2023-11-19T03:27:50;5.35;;;2.80;;
42518;SDS011;28147;47.520;18.920;2023-11-19T03:30:16;5.53;;;2.53;;
42518;SDS011;28147;47.520;18.920;2023-11-19T03:32:42;4.85;;;2.10;;
42518;SDS011;28147;47.520;18.920;2023-11-19T03:35:08;3.50;;;1.90;;
42518;SDS011;28147;47.520;18.920;2023-11-19T03:37:34;4.93;;;2.22;;
42518;SDS011;28147;47.520;18.920;2023-11-19T03:39:59;5.22;;;2.90;;
42518;SDS011;28147;47.520;18.920;2023-11-19T03:42:25;4.13;;;2.00;;
42518;SDS011;28147;47.520;18.920;2023-11-19T03:44:52;4.93;;;2.40;;
42518;SDS011;28147;47.520;18.920;2023-11-19T03:47:18;4.57;;;2.30;;
42518;SDS011;28147;47.520;18.920;2023-11-19T03:49:47;4.68;;;2.22;;
42518;SDS011;28147;47.520;18.920;2023-11-19T03:52:13;5.47;;;2.47;;
42518;SDS011;28147;47.520;18.920;2023-11-19T03:54:39;5.60;;;2.22;;
42518;SDS011;28147;47.520;18.920;2023-11-19T03:57:04;4.90;;;2.45;;
42518;SDS011;28147;47.520;18.920;2023-11-19T03:59:30;4.93;;;2.83;;
42518;SDS011;28147;47.520;18.920;2023-11-19T04:01:55;8.25;;;3.40;;
42518;SDS011;28147;47.520;18.920;2023-11-19T04:04:21;8.27;;;3.80;;
42518;SDS011;28147;47.520;18.920;2023-11-19T04:06:47;7.68;;;3.60;;
42518;SDS011;28147;47.520;18.920;2023-11-19T04:09:13;6.78;;;3.33;;
42518;SDS011;28147;47.520;18.920;2023-11-19T04:11:38;6.57;;;3.50;;
42518;SDS011;28147;47.520;18.920;2023-11-19T04:14:05;8.55;;;3.92;;
42518;SDS011;28147;47.520;18.920;2023-11-19T04:16:30;7.35;;;4.03;;
42518;SDS011;28147;47.520;18.920;2023-11-19T04:18:56;9.80;;;4.47;;
42518;SDS011;28147;47.520;18.920;2023-11-19T04:21:21;7.97;;;4.05;;
42518;SDS011;28147;47.520;18.920;2023-11-19T04:23:49;7.28;;;4.25;;
42518;SDS011;28147;47.520;18.920;2023-11-19T04:26:14;7.80;;;3.72;;
42518;SDS011;28147;47.520;18.920;2023-11-19T04:28:41;8.82;;;3.80;;
42518;SDS011;28147;47.520;18.920;2023-11-19T04:31:07;6.55;;;3.35;;
42518;SDS011;28147;47.520;18.920;2023-11-19T04:33:34;6.25;;;3.42;;
42518;SDS011;28147;47.520;18.920;2023-11-19T04:35:59;8.05;;;3.63;;
42518;SDS011;28147;47.520;18.920;2023-11-19T04:38:25;6.68;;;3.50;;
42518;SDS011;28147;47.520;18.920;2023-11-19T04:40:51;8.05;;;3.47;;
42518;SDS011;28147;47.520;18.920;2023-11-19T04:43:17;5.60;;;3.10;;
42518;SDS011;28147;47.520;18.920;2023-11-19T04:45:43;5.47;;;3.35;;
42518;SDS011;28147;47.520;18.920;2023-11-19T04:48:08;6.57;;;3.13;;
42518;SDS011;28147;47.520;18.920;2023-11-19T04:50:34;6.95;;;3.15;;
42518;SDS011;28147;47.520;18.920;2023-11-19T04:52:59;7.28;;;3.42;;
42518;SDS011;28147;47.520;18.920;2023-11-19T04:55:25;5.18;;;2.55;;
42518;SDS011;28147;47.520;18.920;2023-11-19T04:57:50;5.43;;;2.70;;
42518;SDS011;28147;47.520;18.920;2023-11-19T05:00:18;5.90;;;3.10;;
42518;SDS011;28147;47.520;18.920;2023-11-19T05:02:44;7.03;;;2.90;;
42518;SDS011;28147;47.520;18.920;2023-11-19T05:05:10;7.30;;;3.28;;
42518;SDS011;28147;47.520;18.920;2023-11-19T05:07:36;5.03;;;2.80;;
42518;SDS011;28147;47.520;18.920;2023-11-19T05:10:03;5.50;;;2.83;;
42518;SDS011;28147;47.520;18.920;2023-11-19T05:12:31;6.95;;;3.00;;
42518;SDS011;28147;47.520;18.920;2023-11-19T05:14:56;5.95;;;3.42;;
42518;SDS011;28147;47.520;18.920;2023-11-19T05:17:23;6.80;;;3.33;;
42518;SDS011;28147;47.520;18.920;2023-11-19T05:19:49;5.65;;;2.95;;
42518;SDS011;28147;47.520;18.920;2023-11-19T05:22:14;7.13;;;3.30;;
42518;SDS011;28147;47.520;18.920;2023-11-19T05:24:40;7.05;;;3.20;;
42518;SDS011;28147;47.520;18.920;2023-11-19T05:27:06;7.53;;;3.17;;
42518;SDS011;28147;47.520;18.920;2023-11-19T05:29:33;8.13;;;3.53;;
42518;SDS011;28147;47.520;18.920;2023-11-19T05:31:58;7.85;;;3.22;;
42518;SDS011;28147;47.520;18.920;2023-11-19T05:34:24;6.03;;;2.88;;
42518;SDS011;28147;47.520;18.920;2023-11-19T05:36:50;7.47;;;3.38;;
42518;SDS011;28147;47.520;18.920;2023-11-19T05:39:16;5.90;;;3.72;;
42518;SDS011;28147;47.520;18.920;2023-11-19T05:41:42;6.60;;;3.28;;
42518;SDS011;28147;47.520;18.920;2023-11-19T05:44:07;7.60;;;3.17;;
42518;SDS011;28147;47.520;18.920;2023-11-19T05:46:33;8.32;;;3.42;;
42518;SDS011;28147;47.520;18.920;2023-11-19T05:48:59;6.43;;;3.15;;
42518;SDS011;28147;47.520;18.920;2023-11-19T05:51:25;8.52;;;3.28;;
42518;SDS011;28147;47.520;18.920;2023-11-19T05:53:50;6.60;;;2.97;;
42518;SDS011;28147;47.520;18.920;2023-11-19T05:56:16;7.65;;;3.60;;
42518;SDS011;28147;47.520;18.920;2023-11-19T06:01:14;7.68;;;3.83;;
42518;SDS011;28147;47.520;18.920;2023-11-19T06:03:39;6.88;;;4.03;;
42518;SDS011;28147;47.520;18.920;2023-11-19T06:06:05;7.40;;;3.70;;
42518;SDS011;28147;47.520;18.920;2023-11-19T06:08:31;8.43;;;3.83;;
42518;SDS011;28147;47.520;18.920;2023-11-19T06:10:56;5.93;;;3.10;;
42518;SDS011;28147;47.520;18.920;2023-11-19T06:13:22;7.93;;;3.50;;
42518;SDS011;28147;47.520;18.920;2023-11-19T06:15:47;7.95;;;4.03;;
42518;SDS011;28147;47.520;18.920;2023-11-19T06:18:12;8.95;;;4.82;;
42518;SDS011;28147;47.520;18.920;2023-11-19T06:20:40;6.85;;;3.50;;
42518;SDS011;28147;47.520;18.920;2023-11-19T06:23:05;7.00;;;3.58;;
42518;SDS011;28147;47.520;18.920;2023-11-19T06:25:31;8.85;;;4.30;;
42518;SDS011;28147;47.520;18.920;2023-11-19T06:27:57;9.48;;;4.15;;
42518;SDS011;28147;47.520;18.920;2023-11-19T06:30:23;7.45;;;4.15;;
42518;SDS011;28147;47.520;18.920;2023-11-19T06:32:49;7.47;;;3.45;;
42518;SDS011;28147;47.520;18.920;2023-11-19T06:35:14;7.35;;;4.00;;
42518;SDS011;28147;47.520;18.920;2023-11-19T06:37:40;7.22;;;3.67;;
42518;SDS011;28147;47.520;18.920;2023-11-19T06:40:06;7.97;;;4.00;;
42518;SDS011;28147;47.520;18.920;2023-11-19T06:42:34;9.25;;;3.97;;
42518;SDS011;28147;47.520;18.920;2023-11-19T06:44:59;7.38;;;3.58;;
42518;SDS011;28147;47.520;18.920;2023-11-19T06:47:25;7.72;;;3.28;;
42518;SDS011;28147;47.520;18.920;2023-11-19T06:49:52;10.10;;;4.43;;
42518;SDS011;28147;47.520;18.920;2023-11-19T06:52:18;7.68;;;3.53;;
42518;SDS011;28147;47.520;18.920;2023-11-19T06:54:44;7.43;;;3.50;;
42518;SDS011;28147;47.520;18.920;2023-11-19T06:57:10;7.05;;;3.65;;
42518;SDS011;28147;47.520;18.920;2023-11-19T06:59:36;7.10;;;3.95;;
42518;SDS011;28147;47.520;18.920;2023-11-19T07:02:02;8.45;;;4.72;;
42518;SDS011;28147;47.520;18.920;2023-11-19T07:04:28;6.57;;;3.50;;
42518;SDS011;28147;47.520;18.920;2023-11-19T07:06:53;7.28;;;3.60;;
42518;SDS011;28147;47.520;18.920;2023-11-19T07:09:18;7.80;;;3.80;;
42518;SDS011;28147;47.520;18.920;2023-11-19T07:11:44;9.05;;;4.15;;
42518;SDS011;28147;47.520;18.920;2023-11-19T07:14:11;10.27;;;4.25;;
42518;SDS011;28147;47.520;18.920;2023-11-19T07:16:37;8.07;;;4.18;;
42518;SDS011;28147;47.520;18.920;2023-11-19T07:19:04;8.00;;;4.10;;
42518;SDS011;28147;47.520;18.920;2023-11-19T07:21:30;7.72;;;4.07;;
42518;SDS011;28147;47.520;18.920;2023-11-19T07:23:56;7.63;;;4.00;;
42518;SDS011;28147;47.520;18.920;2023-11-19T07:26:21;7.47;;;3.95;;
42518;SDS011;28147;47.520;18.920;2023-11-19T07:28:48;9.23;;;4.72;;
42518;SDS011;28147;47.520;18.920;2023-11-19T07:31:14;6.28;;;3.30;;
42518;SDS011;28147;47.520;18.920;2023-11-19T07:33:39;8.48;;;4.00;;
42518;SDS011;28147;47.520;18.920;2023-11-19T07:36:08;7.82;;;3.95;;
42518;SDS011;28147;47.520;18.920;2023-11-19T07:38:37;7.32;;;3.83;;
42518;SDS011;28147;47.520;18.920;2023-11-19T07:41:03;8.27;;;3.88;;
42518;SDS011;28147;47.520;18.920;2023-11-19T07:43:30;8.38;;;3.92;;
42518;SDS011;28147;47.520;18.920;2023-11-19T07:45:55;10.13;;;4.57;;
42518;SDS011;28147;47.520;18.920;2023-11-19T07:48:20;9.77;;;5.35;;
42518;SDS011;28147;47.520;18.920;2023-11-19T07:50:52;8.60;;;4.20;;
42518;SDS011;28147;47.520;18.920;2023-11-19T07:53:19;7.95;;;4.50;;
42518;SDS011;28147;47.520;18.920;2023-11-19T07:55:45;8.85;;;4.55;;
42518;SDS011;28147;47.520;18.920;2023-11-19T07:58:11;10.05;;;4.85;;
42518;SDS011;28147;47.520;18.920;2023-11-19T08:00:37;10.02;;;5.13;;
42518;SDS011;28147;47.520;18.920;2023-11-19T08:03:03;9.88;;;4.93;;
42518;SDS011;28147;47.520;18.920;2023-11-19T08:05:30;12.95;;;6.80;;
42518;SDS011;28147;47.520;18.920;2023-11-19T08:07:58;9.05;;;4.57;;
42518;SDS011;28147;47.520;18.920;2023-11-19T08:10:23;8.88;;;4.88;;
42518;SDS011;28147;47.520;18.920;2023-11-19T08:12:49;8.50;;;4.25;;
42518;SDS011;28147;47.520;18.920;2023-11-19T08:15:14;8.40;;;4.13;;
42518;SDS011;28147;47.520;18.920;2023-11-19T08:17:41;8.48;;;3.95;;
42518;SDS011;28147;47.520;18.920;2023-11-19T08:20:06;10.30;;;4.55;;
42518;SDS011;28147;47.520;18.920;2023-11-19T08:22:35;10.88;;;4.53;;
42518;SDS011;28147;47.520;18.920;2023-11-19T08:25:02;9.40;;;4.50;;
42518;SDS011;28147;47.520;18.920;2023-11-19T08:27:29;8.80;;;4.55;;
42518;SDS011;28147;47.520;18.920;2023-11-19T08:29:54;8.13;;;4.35;;
42518;SDS011;28147;47.520;18.920;2023-11-19T08:32:23;22.17;;;8.57;;
42518;SDS011;28147;47.520;18.920;2023-11-19T08:34:49;28.40;;;11.88;;
42518;SDS011;28147;47.520;18.920;2023-11-19T08:37:15;32.83;;;14.15;;
42518;SDS011;28147;47.520;18.920;2023-11-19T08:39:42;28.92;;;13.25;;
42518;SDS011;28147;47.520;18.920;2023-11-19T08:42:08;15.15;;;7.38;;
42518;SDS011;28147;47.520;18.920;2023-11-19T08:44:33;8.07;;;3.90;;
42518;SDS011;28147;47.520;18.920;2023-11-19T08:46:59;8.93;;;4.45;;
42518;SDS011;28147;47.520;18.920;2023-11-19T08:49:24;8.02;;;4.22;;
42518;SDS011;28147;47.520;18.920;2023-11-19T08:51:50;12.35;;;5.32;;
42518;SDS011;28147;47.520;18.920;2023-11-19T08:54:16;11.88;;;5.80;;
42518;SDS011;28147;47.520;18.920;2023-11-19T08:56:41;7.22;;;3.95;;
42518;SDS011;28147;47.520;18.920;2023-11-19T08:59:07;6.97;;;4.10;;
42518;SDS011;28147;47.520;18.920;2023-11-19T09:01:32;9.65;;;4.60;;
42518;SDS011;28147;47.520;18.920;2023-11-19T09:03:57;8.55;;;3.92;;
42518;SDS011;28147;47.520;18.920;2023-11-19T09:06:23;8.40;;;4.32;;
42518;SDS011;28147;47.520;18.920;2023-11-19T09:08:48;8.05;;;4.03;;
42518;SDS011;28147;47.520;18.920;2023-11-19T09:11:13;9.40;;;4.53;;
42518;SDS011;28147;47.520;18.920;2023-11-19T09:13:39;7.53;;;4.18;;
42518;SDS011;28147;47.520;18.920;2023-11-19T09:16:04;9.05;;;5.00;;
42518;SDS011;28147;47.520;18.920;2023-11-19T09:18:30;8.88;;;5.00;;
42518;SDS011;28147;47.520;18.920;2023-11-19T09:20:57;10.25;;;4.72;;
42518;SDS011;28147;47.520;18.920;2023-11-19T09:23:22;10.18;;;5.28;;
42518;SDS011;28147;47.520;18.920;2023-11-19T09:25:49;8.65;;;4.75;;
42518;SDS011;28147;47.520;18.920;2023-11-19T09:28:15;8.63;;;4.55;;
42518;SDS011;28147;47.520;18.920;2023-11-19T09:30:40;13.15;;;5.68;;
42518;SDS011;28147;47.520;18.920;2023-11-19T09:33:05;9.30;;;5.00;;
42518;SDS011;28147;47.520;18.920;2023-11-19T09:35:31;9.82;;;5.32;;
42518;SDS011;28147;47.520;18.920;2023-11-19T09:37:56;10.63;;;5.50;;
42518;SDS011;28147;47.520;18.920;2023-11-19T09:40:22;10.63;;;5.05;;
42518;SDS011;28147;47.520;18.920;2023-11-19T09:42:47;10.45;;;5.35;;
42518;SDS011;28147;47.520;18.920;2023-11-19T09:45:14;12.57;;;5.40;;
42518;SDS011;28147;47.520;18.920;2023-11-19T09:47:44;10.38;;;5.57;;
42518;SDS011;28147;47.520;18.920;2023-11-19T09:50:17;11.65;;;5.28;;
42518;SDS011;28147;47.520;18.920;2023-11-19T09:52:44;10.70;;;5.57;;
42518;SDS011;28147;47.520;18.920;2023-11-19T09:55:10;10.63;;;4.88;;
42518;SDS011;28147;47.520;18.920;2023-11-19T09:57:36;11.55;;;4.85;;
42518;SDS011;28147;47.520;18.920;2023-11-19T10:00:03;9.25;;;4.95;;
42518;SDS011;28147;47.520;18.920;2023-11-19T10:02:33;11.98;;;5.90;;
42518;SDS011;28147;47.520;18.920;2023-11-19T10:05:04;11.93;;;6.30;;
42518;SDS011;28147;47.520;18.920;2023-11-19T10:07:32;11.47;;;5.13;;
42518;SDS011;28147;47.520;18.920;2023-11-19T10:10:01;11.02;;;6.78;;
42518;SDS011;28147;47.520;18.920;2023-11-19T10:12:29;15.30;;;6.47;;
42518;SDS011;28147;47.520;18.920;2023-11-19T10:14:58;12.60;;;6.20;;
42518;SDS011;28147;47.520;18.920;2023-11-19T10:17:28;11.00;;;5.80;;
42518;SDS011;28147;47.520;18.920;2023-11-19T10:19:54;11.10;;;5.75;;
42518;SDS011;28147;47.520;18.920;2023-11-19T10:22:22;12.55;;;5.95;;
42518;SDS011;28147;47.520;18.920;2023-11-19T10:24:48;12.68;;;6.20;;
42518;SDS011;28147;47.520;18.920;2023-11-19T10:27:13;10.77;;;5.80;;
42518;SDS011;28147;47.520;18.920;2023-11-19T10:29:39;11.30;;;5.20;;
42518;SDS011;28147;47.520;18.920;2023-11-19T10:32:05;9.45;;;5.10;;
42518;SDS011;28147;47.520;18.920;2023-11-19T10:34:31;13.43;;;6.35;;
42518;SDS011;28147;47.520;18.920;2023-11-19T10:36:56;11.82;;;5.80;;
42518;SDS011;28147;47.520;18.920;2023-11-19T10:39:22;8.68;;;4.68;;
42518;SDS011;28147;47.520;18.920;2023-11-19T10:41:48;9.93;;;5.22;;
42518;SDS011;28147;47.520;18.920;2023-11-19T10:44:30;10.40;;;5.60;;
42518;SDS011;28147;47.520;18.920;2023-11-19T10:46:58;9.63;;;5.30;;
42518;SDS011;28147;47.520;18.920;2023-11-19T10:49:24;9.25;;;4.88;;
42518;SDS011;28147;47.520;18.920;2023-11-19T10:51:50;11.55;;;5.57;;
42518;SDS011;28147;47.520;18.920;2023-11-19T10:54:18;10.75;;;5.55;;
42518;SDS011;28147;47.520;18.920;2023-11-19T10:56:44;10.77;;;5.75;;
42518;SDS011;28147;47.520;18.920;2023-11-19T10:59:19;12.25;;;5.25;;
42518;SDS011;28147;47.520;18.920;2023-11-19T11:01:47;10.80;;;5.47;;
42518;SDS011;28147;47.520;18.920;2023-11-19T11:04:17;10.38;;;5.75;;
42518;SDS011;28147;47.520;18.920;2023-11-19T11:06:47;9.98;;;5.47;;
42518;SDS011;28147;47.520;18.920;2023-11-19T11:09:14;9.98;;;5.22;;
42518;SDS011;28147;47.520;18.920;2023-11-19T11:11:40;13.50;;;6.40;;
42518;SDS011;28147;47.520;18.920;2023-11-19T11:14:11;11.07;;;6.63;;
42518;SDS011;28147;47.520;18.920;2023-11-19T11:16:38;12.15;;;5.65;;
42518;SDS011;28147;47.520;18.920;2023-11-19T11:19:07;9.43;;;5.30;;
42518;SDS011;28147;47.520;18.920;2023-11-19T11:21:34;12.07;;;5.45;;
42518;SDS011;28147;47.520;18.920;2023-11-19T11:32:48;10.00;;;5.22;;
42518;SDS011;28147;47.520;18.920;2023-11-19T11:38:21;9.52;;;5.90;;
42518;SDS011;28147;47.520;18.920;2023-11-19T11:48:59;9.02;;;5.25;;
42518;SDS011;28147;47.520;18.920;2023-11-19T11:54:08;9.82;;;5.05;;
42518;SDS011;28147;47.520;18.920;2023-11-19T11:56:36;12.77;;;5.55;;
42518;SDS011;28147;47.520;18.920;2023-11-19T11:59:19;12.63;;;6.47;;
42518;SDS011;28147;47.520;18.920;2023-11-19T12:01:59;8.45;;;5.45;;
42518;SDS011;28147;47.520;18.920;2023-11-19T12:04:28;10.95;;;5.85;;
42518;SDS011;28147;47.520;18.920;2023-11-19T12:07:07;11.23;;;5.53;;
42518;SDS011;28147;47.520;18.920;2023-11-19T12:09:36;13.00;;;6.28;;
42518;SDS011;28147;47.520;18.920;2023-11-19T12:19:59;11.40;;;5.97;;
42518;SDS011;28147;47.520;18.920;2023-11-19T12:22:25;9.30;;;5.47;;
42518;SDS011;28147;47.520;18.920;2023-11-19T12:24:51;10.57;;;5.88;;
42518;SDS011;28147;47.520;18.920;2023-11-19T12:27:18;10.30;;;5.32;;
42518;SDS011;28147;47.520;18.920;2023-11-19T12:29:47;11.95;;;5.60;;
42518;SDS011;28147;47.520;18.920;2023-11-19T12:32:12;10.43;;;5.65;;
42518;SDS011;28147;47.520;18.920;2023-11-19T12:34:38;12.70;;;6.57;;
42518;SDS011;28147;47.520;18.920;2023-11-19T12:37:04;12.05;;;6.10;;
42518;SDS011;28147;47.520;18.920;2023-11-19T12:39:30;12.95;;;7.00;;
42518;SDS011;28147;47.520;18.920;2023-11-19T12:41:56;10.60;;;6.07;;
42518;SDS011;28147;47.520;18.920;2023-11-19T12:44:24;11.65;;;5.85;;
42518;SDS011;28147;47.520;18.920;2023-11-19T12:49:26;12.13;;;6.25;;
42518;SDS011;28147;47.520;18.920;2023-11-19T12:51:51;11.77;;;6.65;;
42518;SDS011;28147;47.520;18.920;2023-11-19T12:54:16;12.55;;;5.60;;
42518;SDS011;28147;47.520;18.920;2023-11-19T12:56:52;13.10;;;6.20;;
42518;SDS011;28147;47.520;18.920;2023-11-19T12:59:18;11.60;;;6.40;;
42518;SDS011;28147;47.520;18.920;2023-11-19T13:01:56;10.90;;;5.82;;
42518;SDS011;28147;47.520;18.920;2023-11-19T13:04:22;11.57;;;6.28;;
42518;SDS011;28147;47.520;18.920;2023-11-19T13:06:49;11.68;;;6.45;;
42518;SDS011;28147;47.520;18.920;2023-11-19T13:09:24;11.45;;;5.85;;
42518;SDS011;28147;47.520;18.920;2023-11-19T13:11:51;10.43;;;6.32;;
42518;SDS011;28147;47.520;18.920;2023-11-19T13:14:17;12.38;;;7.05;;
42518;SDS011;28147;47.520;18.920;2023-11-19T13:16:44;11.95;;;6.32;;
42518;SDS011;28147;47.520;18.920;2023-11-19T13:19:11;9.93;;;6.38;;
42518;SDS011;28147;47.520;18.920;2023-11-19T13:21:37;11.63;;;6.45;;
42518;SDS011;28147;47.520;18.920;2023-11-19T13:24:04;13.85;;;6.88;;
42518;SDS011;28147;47.520;18.920;2023-11-19T13:26:33;11.50;;;5.88;;
42518;SDS011;28147;47.520;18.920;2023-11-19T13:28:59;14.07;;;6.97;;
42518;SDS011;28147;47.520;18.920;2023-11-19T13:31:26;15.30;;;6.90;;
42518;SDS011;28147;47.520;18.920;2023-11-19T13:33:51;11.45;;;6.75;;
42518;SDS011;28147;47.520;18.920;2023-11-19T13:36:17;14.63;;;6.60;;
42518;SDS011;28147;47.520;18.920;2023-11-19T13:38:42;12.23;;;6.15;;
42518;SDS011;28147;47.520;18.920;2023-11-19T13:41:09;12.52;;;6.47;;
42518;SDS011;28147;47.520;18.920;2023-11-19T13:43:36;10.27;;;6.47;;
42518;SDS011;28147;47.520;18.920;2023-11-19T13:46:02;11.95;;;6.20;;
42518;SDS011;28147;47.520;18.920;2023-11-19T13:48:28;11.70;;;6.70;;
42518;SDS011;28147;47.520;18.920;2023-11-19T13:50:57;14.27;;;6.25;;
42518;SDS011;28147;47.520;18.920;2023-11-19T13:53:22;10.50;;;5.18;;
42518;SDS011;28147;47.520;18.920;2023-11-19T13:55:51;11.30;;;5.93;;
42518;SDS011;28147;47.520;18.920;2023-11-19T13:58:18;14.38;;;7.07;;
42518;SDS011;28147;47.520;18.920;2023-11-19T14:00:43;11.40;;;6.20;;
42518;SDS011;28147;47.520;18.920;2023-11-19T14:03:09;13.63;;;6.47;;
42518;SDS011;28147;47.520;18.920;2023-11-19T14:05:38;11.02;;;5.60;;
42518;SDS011;28147;47.520;18.920;2023-11-19T14:08:04;13.20;;;6.10;;
42518;SDS011;28147;47.520;18.920;2023-11-19T14:10:36;12.77;;;6.25;;
42518;SDS011;28147;47.520;18.920;2023-11-19T14:13:04;11.95;;;6.10;;
42518;SDS011;28147;47.520;18.920;2023-11-19T14:15:29;12.07;;;6.38;;
42518;SDS011;28147;47.520;18.920;2023-11-19T14:17:55;14.48;;;6.93;;
42518;SDS011;28147;47.520;18.920;2023-11-19T14:20:20;12.15;;;6.10;;
42518;SDS011;28147;47.520;18.920;2023-11-19T14:22:46;14.18;;;6.70;;
42518;SDS011;28147;47.520;18.920;2023-11-19T14:25:15;14.45;;;7.03;;
42518;SDS011;28147;47.520;18.920;2023-11-19T14:27:41;10.98;;;6.18;;
42518;SDS011;28147;47.520;18.920;2023-11-19T14:30:09;12.38;;;6.82;;
42518;SDS011;28147;47.520;18.920;2023-11-19T14:32:37;10.95;;;5.75;;
42518;SDS011;28147;47.520;18.920;2023-11-19T14:35:06;12.55;;;6.63;;
42518;SDS011;28147;47.520;18.920;2023-11-19T14:37:32;10.35;;;6.00;;
42518;SDS011;28147;47.520;18.920;2023-11-19T14:39:58;13.10;;;6.60;;
42518;SDS011;28147;47.520;18.920;2023-11-19T14:42:24;9.98;;;6.55;;
42518;SDS011;28147;47.520;18.920;2023-11-19T14:44:50;13.60;;;7.47;;
42518;SDS011;28147;47.520;18.920;2023-11-19T14:47:18;14.35;;;8.27;;
42518;SDS011;28147;47.520;18.920;2023-11-19T14:49:43;13.52;;;7.97;;
42518;SDS011;28147;47.520;18.920;2023-11-19T14:52:09;13.50;;;8.55;;
42518;SDS011;28147;47.520;18.920;2023-11-19T14:54:35;20.40;;;9.63;;
42518;SDS011;28147;47.520;18.920;2023-11-19T14:57:00;24.35;;;12.55;;
42518;SDS011;28147;47.520;18.920;2023-11-19T14:59:26;29.67;;;14.93;;
42518;SDS011;28147;47.520;18.920;2023-11-19T15:01:51;22.30;;;12.85;;
42518;SDS011;28147;47.520;18.920;2023-11-19T15:04:17;27.83;;;14.75;;
42518;SDS011;28147;47.520;18.920;2023-11-19T15:06:42;23.75;;;12.55;;